createdAt,value
2023-01-29T00:00:00.723Z,13.0
2023-01-29T00:05:27.735Z,4.7
2023-01-29T00:10:00.643Z,6.1
2023-01-29T00:15:00.662Z,7.6
2023-01-29T00:20:00.708Z,8.3
2023-01-29T00:25:00.676Z,9.7
2023-01-29T00:30:00.694Z,8.3
2023-01-29T00:35:00.769Z,15.8
2023-01-29T00:40:00.678Z,5.8
2023-01-29T00:45:00.704Z,6.5
2023-01-29T00:50:00.702Z,8.3
2023-01-29T00:55:00.885Z,10.8
2023-01-29T01:00:00.693Z,15.1
2023-01-29T01:05:00.666Z,13.0
2023-01-29T01:10:00.711Z,10.8
2023-01-29T01:15:00.647Z,15.1
2023-01-29T01:20:00.741Z,15.1
2023-01-29T01:25:00.648Z,8.3
2023-01-29T01:30:00.678Z,14.8
2023-01-29T01:35:00.670Z,10.1
2023-01-29T01:40:00.661Z,14.8
2023-01-29T01:45:00.683Z,9.7
2023-01-29T01:50:00.665Z,14.8
2023-01-29T01:55:00.697Z,8.3
2023-01-29T02:00:00.704Z,9.4
2023-01-29T02:05:00.701Z,8.3
2023-01-29T02:10:02.513Z,15.5
2023-01-29T02:15:00.731Z,11.9
2023-01-29T02:20:00.672Z,13.3
2023-01-29T02:25:00.662Z,14.0
2023-01-29T02:30:00.657Z,3.6
2023-01-29T02:35:00.663Z,11.5
2023-01-29T02:40:00.652Z,5.8
2023-01-29T02:45:00.661Z,9.0
2023-01-29T02:50:00.672Z,9.7
2023-01-29T02:55:00.674Z,6.1
2023-01-29T03:00:00.770Z,11.2
2023-01-29T03:05:00.662Z,6.8
2023-01-29T03:10:00.670Z,14.0
2023-01-29T03:15:00.692Z,16.9
2023-01-29T03:20:00.682Z,9.4
2023-01-29T03:25:00.744Z,13.7
2023-01-29T03:30:00.701Z,16.6
2023-01-29T03:35:00.747Z,16.6
2023-01-29T03:40:00.670Z,10.8
2023-01-29T03:45:00.681Z,7.9
2023-01-29T03:50:00.708Z,16.2
2023-01-29T03:55:00.684Z,6.8
2023-01-29T04:00:00.657Z,10.1
2023-01-29T04:05:00.670Z,9.4
2023-01-29T04:10:00.696Z,10.8
2023-01-29T04:15:00.657Z,12.2
2023-01-29T04:20:00.827Z,11.2
2023-01-29T04:25:00.674Z,13.0
2023-01-29T04:30:00.672Z,7.6
2023-01-29T04:35:00.778Z,10.1
2023-01-29T04:40:00.668Z,12.2
2023-01-29T04:45:00.687Z,4.0
2023-01-29T04:50:00.676Z,9.0
2023-01-29T04:55:00.636Z,12.2
2023-01-29T05:00:00.780Z,7.6
2023-01-29T05:05:00.706Z,10.8
2023-01-29T05:10:00.682Z,10.4
2023-01-29T05:15:00.671Z,10.1
2023-01-29T05:20:00.651Z,7.6
2023-01-29T05:25:00.675Z,9.0
2023-01-29T05:30:00.671Z,11.5
2023-01-29T05:35:00.700Z,8.6
2023-01-29T05:40:00.745Z,4.7
2023-01-29T05:45:00.756Z,9.0
2023-01-29T05:50:00.712Z,7.2
2023-01-29T05:55:00.705Z,9.7
2023-01-29T06:00:00.761Z,11.2
2023-01-29T06:05:00.653Z,5.8
2023-01-29T06:10:00.681Z,7.6
2023-01-29T06:15:00.625Z,10.4
2023-01-29T06:20:00.698Z,9.4
2023-01-29T06:25:00.635Z,14.4
2023-01-29T06:30:00.693Z,9.0
2023-01-29T06:35:00.656Z,9.7
2023-01-29T06:40:00.729Z,11.2
2023-01-29T06:45:00.703Z,10.1
2023-01-29T06:50:00.703Z,7.9
2023-01-29T06:55:00.680Z,11.2
2023-01-29T07:00:00.801Z,15.8
2023-01-29T07:05:00.669Z,11.5
2023-01-29T07:10:00.707Z,18.7
2023-01-29T07:15:00.637Z,5.8
2023-01-29T07:20:00.649Z,13.0
2023-01-29T07:25:00.643Z,11.9
2023-01-29T07:30:00.799Z,16.2
2023-01-29T07:35:00.632Z,10.1
2023-01-29T07:40:00.664Z,14.0
2023-01-29T07:45:00.677Z,14.4
2023-01-29T07:50:00.660Z,14.0
2023-01-29T07:55:00.666Z,14.8
2023-01-29T08:00:00.691Z,12.2
2023-01-29T08:05:00.657Z,14.8
2023-01-29T08:10:00.655Z,14.4
2023-01-29T08:15:00.708Z,14.8
2023-01-29T08:20:00.807Z,13.3
2023-01-29T08:25:09.004Z,15.5
2023-01-29T08:30:00.719Z,11.5
2023-01-29T08:35:00.639Z,9.0
2023-01-29T08:40:00.725Z,15.8
2023-01-29T08:45:00.702Z,14.8
2023-01-29T08:50:00.675Z,15.5
2023-01-29T08:55:00.703Z,15.5
2023-01-29T09:00:00.649Z,17.6
2023-01-29T09:05:00.694Z,17.6
2023-01-29T09:10:00.662Z,16.6
2023-01-29T09:15:00.678Z,10.4
2023-01-29T09:20:00.707Z,12.2
2023-01-29T09:25:00.715Z,18.4
2023-01-29T09:30:00.695Z,16.9
2023-01-29T09:35:00.685Z,19.1
2023-01-29T09:40:00.699Z,20.5
2023-01-29T09:45:00.869Z,15.1
2023-01-29T09:50:00.677Z,23.0
2023-01-29T09:55:00.684Z,15.5
2023-01-29T10:00:00.740Z,19.1
2023-01-29T10:05:00.714Z,13.3
2023-01-29T10:10:00.696Z,19.1
2023-01-29T10:15:00.741Z,13.0
2023-01-29T10:20:00.716Z,19.8
2023-01-29T10:25:00.800Z,13.7
2023-01-29T10:30:00.719Z,15.1
2023-01-29T10:35:00.712Z,15.5
2023-01-29T10:40:00.662Z,14.0
2023-01-29T10:45:00.750Z,18.0
2023-01-29T10:50:00.691Z,10.4
2023-01-29T10:55:00.730Z,14.8
2023-01-29T11:00:00.673Z,14.4
2023-01-29T11:05:00.661Z,21.2
2023-01-29T11:10:00.675Z,16.2
2023-01-29T11:15:00.660Z,14.8
2023-01-29T11:20:00.712Z,14.4
2023-01-29T11:25:00.696Z,17.3
2023-01-29T11:30:00.744Z,16.2
2023-01-29T11:35:00.636Z,19.8
2023-01-29T11:40:00.655Z,18.7
2023-01-29T11:45:00.683Z,16.9
2023-01-29T11:50:00.697Z,14.0
2023-01-29T11:55:00.658Z,16.2
2023-01-29T12:00:02.709Z,13.3
2023-01-29T12:05:00.668Z,7.6
2023-01-29T12:10:00.715Z,15.8
2023-01-29T12:15:00.691Z,15.8
2023-01-29T12:20:02.673Z,18.4
2023-01-29T12:25:03.055Z,10.1
2023-01-29T12:30:02.682Z,16.9
2023-01-29T12:35:00.781Z,19.4
2023-01-29T12:40:00.678Z,21.2
2023-01-29T12:45:00.747Z,19.4
2023-01-29T12:50:00.742Z,23.4
2023-01-29T12:55:00.701Z,15.5
2023-01-29T13:00:00.669Z,21.6
2023-01-29T13:05:00.687Z,15.8
2023-01-29T13:10:00.625Z,17.3
2023-01-29T13:15:00.685Z,18.0
2023-01-29T13:20:00.697Z,23.0
2023-01-29T13:25:06.149Z,12.6
2023-01-29T13:30:00.710Z,15.8
2023-01-29T13:35:00.740Z,14.8
2023-01-29T13:40:00.716Z,15.5
2023-01-29T13:45:00.689Z,11.2
2023-01-29T13:50:00.671Z,19.8
2023-01-29T13:55:00.660Z,16.2
2023-01-29T14:00:00.761Z,17.3
2023-01-29T14:05:00.647Z,18.4
2023-01-29T14:10:00.709Z,8.6
2023-01-29T14:15:00.777Z,17.3
2023-01-29T14:20:00.728Z,17.6
2023-01-29T14:25:00.797Z,11.9
2023-01-29T14:30:00.708Z,10.4
2023-01-29T14:35:00.646Z,7.2
2023-01-29T14:40:01.178Z,11.2
2023-01-29T14:45:00.665Z,10.8
2023-01-29T14:50:00.714Z,15.5
2023-01-29T14:55:00.743Z,9.0
2023-01-29T15:00:00.762Z,16.6
2023-01-29T15:05:00.721Z,9.0
2023-01-29T15:10:22.959Z,16.9
2023-01-29T15:15:00.783Z,14.4
2023-01-29T15:20:02.988Z,15.5
2023-01-29T15:25:00.717Z,20.2
2023-01-29T15:30:00.687Z,23.0
2023-01-29T15:35:00.771Z,31.0
2023-01-29T15:40:00.917Z,14.0
2023-01-29T15:45:00.810Z,27.4
2023-01-29T15:50:00.922Z,23.8
2023-01-29T15:55:00.860Z,19.4
2023-01-29T16:00:01.053Z,17.3
2023-01-29T16:05:02.702Z,14.4
2023-01-29T16:10:00.894Z,13.7
2023-01-29T16:15:00.680Z,23.8
2023-01-29T16:20:02.677Z,20.9
2023-01-29T16:25:00.704Z,18.0
2023-01-29T16:30:02.790Z,29.5
2023-01-29T16:35:00.648Z,26.6
2023-01-29T16:40:00.758Z,16.6
2023-01-29T16:45:00.799Z,23.0
2023-01-29T16:50:02.667Z,24.5
2023-01-29T16:55:00.755Z,24.1
2023-01-29T17:00:00.697Z,22.7
2023-01-29T17:05:00.666Z,16.9
2023-01-29T17:10:00.692Z,19.1
2023-01-29T17:15:00.758Z,14.4
2023-01-29T17:20:00.768Z,23.4
2023-01-29T17:25:02.739Z,18.0
2023-01-29T17:30:00.795Z,15.1
2023-01-29T17:35:00.891Z,17.3
2023-01-29T17:40:00.738Z,18.0
2023-01-29T17:45:02.680Z,20.9
2023-01-29T17:50:00.673Z,18.4
2023-01-29T17:55:00.674Z,18.7
2023-01-29T18:00:00.691Z,24.1
2023-01-29T18:05:00.743Z,24.8
2023-01-29T18:10:00.669Z,22.7
2023-01-29T18:15:01.744Z,22.3
2023-01-29T18:20:00.690Z,27.7
2023-01-29T18:25:00.820Z,27.7
2023-01-29T18:30:00.673Z,29.5
2023-01-29T18:35:00.694Z,24.5
2023-01-29T18:40:00.672Z,16.2
2023-01-29T18:45:00.743Z,25.6
2023-01-29T18:50:00.822Z,27.4
2023-01-29T18:55:00.750Z,23.4
2023-01-29T19:00:00.952Z,19.1
2023-01-29T19:05:00.676Z,23.4
2023-01-29T19:10:02.703Z,21.6
2023-01-29T19:15:00.657Z,23.0
2023-01-29T19:20:00.767Z,25.2
2023-01-29T19:25:00.731Z,20.5
2023-01-29T19:30:00.741Z,14.0
2023-01-29T19:35:03.072Z,19.8
2023-01-29T19:40:00.679Z,23.0
2023-01-29T19:45:00.713Z,15.8
2023-01-29T19:50:00.685Z,9.0
2023-01-29T19:55:00.816Z,27.0
2023-01-29T20:00:00.674Z,16.6
2023-01-29T20:05:00.604Z,18.4
2023-01-29T20:10:00.681Z,14.8
2023-01-29T20:15:00.652Z,14.8
2023-01-29T20:20:03.474Z,18.7
2023-01-29T20:25:00.681Z,22.3
2023-01-29T20:30:00.710Z,20.9
2023-01-29T20:35:00.672Z,31.0
2023-01-29T20:40:02.729Z,27.0
2023-01-29T20:45:00.629Z,21.2
2023-01-29T20:50:00.786Z,29.5
2023-01-29T20:55:00.841Z,23.0
2023-01-29T21:00:00.697Z,29.2
2023-01-29T21:05:00.932Z,24.1
2023-01-29T21:10:00.850Z,16.6
2023-01-29T21:15:00.916Z,26.3
2023-01-29T21:20:01.495Z,21.6
2023-01-29T21:25:02.981Z,15.8
2023-01-29T21:30:02.655Z,24.1
2023-01-29T21:35:00.686Z,29.5
2023-01-29T21:40:00.678Z,29.2
2023-01-29T21:45:00.701Z,26.6
2023-01-29T21:50:00.721Z,27.7
2023-01-29T21:55:03.193Z,20.5
2023-01-29T22:00:00.686Z,27.0
2023-01-29T22:05:20.261Z,26.3
2023-01-29T22:10:02.861Z,27.4
2023-01-29T22:15:00.694Z,28.8
2023-01-29T22:20:00.716Z,29.2
2023-01-29T22:25:00.691Z,28.1
2023-01-29T22:30:00.705Z,34.6
2023-01-29T22:35:00.727Z,17.6
2023-01-29T22:40:00.738Z,38.5
2023-01-29T22:45:00.661Z,20.5
2023-01-29T22:50:00.685Z,29.9
2023-01-29T22:55:00.625Z,23.0
2023-01-29T23:00:00.706Z,30.6
2023-01-29T23:05:00.654Z,18.0
2023-01-29T23:10:00.632Z,31.0
2023-01-29T23:15:00.629Z,32.8
2023-01-29T23:20:00.694Z,23.0
2023-01-29T23:25:00.648Z,22.0
2023-01-29T23:30:00.725Z,29.2
2023-01-29T23:35:00.677Z,20.9
2023-01-29T23:40:00.656Z,18.7
2023-01-29T23:45:00.686Z,19.1
2023-01-29T23:50:00.670Z,14.4
2023-01-29T23:55:00.660Z,31.3
